sensor_id;sensor_type;location;lat;lon;timestamp;P1;durP1;ratioP1;P2;durP2;ratioP2
47337;SDS011;33069;51.970;5.892;2022-11-30T00:01:19;49.38;;;36.97;;
47337;SDS011;33069;51.970;5.892;2022-11-30T00:03:46;50.35;;;37.55;;
47337;SDS011;33069;51.970;5.892;2022-11-30T00:06:13;52.15;;;38.67;;
47337;SDS011;33069;51.970;5.892;2022-11-30T00:08:41;49.88;;;39.33;;
47337;SDS011;33069;51.970;5.892;2022-11-30T00:11:12;47.42;;;37.58;;
47337;SDS011;33069;51.970;5.892;2022-11-30T00:13:39;43.65;;;37.55;;
47337;SDS011;33069;51.970;5.892;2022-11-30T00:16:05;42.42;;;34.72;;
47337;SDS011;33069;51.970;5.892;2022-11-30T00:18:50;46.45;;;36.88;;
47337;SDS011;33069;51.970;5.892;2022-11-30T00:21:16;43.13;;;35.25;;
47337;SDS011;33069;51.970;5.892;2022-11-30T00:23:42;47.97;;;40.53;;
47337;SDS011;33069;51.970;5.892;2022-11-30T00:26:10;48.00;;;38.65;;
47337;SDS011;33069;51.970;5.892;2022-11-30T00:28:37;51.28;;;39.15;;
47337;SDS011;33069;51.970;5.892;2022-11-30T00:31:06;49.80;;;40.70;;
47337;SDS011;33069;51.970;5.892;2022-11-30T00:34:27;53.05;;;41.42;;
47337;SDS011;33069;51.970;5.892;2022-11-30T00:36:53;49.85;;;38.58;;
47337;SDS011;33069;51.970;5.892;2022-11-30T00:39:19;50.03;;;38.13;;
47337;SDS011;33069;51.970;5.892;2022-11-30T00:41:44;48.45;;;38.90;;
47337;SDS011;33069;51.970;5.892;2022-11-30T00:44:10;51.50;;;38.67;;
47337;SDS011;33069;51.970;5.892;2022-11-30T00:46:36;56.47;;;43.22;;
47337;SDS011;33069;51.970;5.892;2022-11-30T00:49:01;52.90;;;39.22;;
47337;SDS011;33069;51.970;5.892;2022-11-30T00:51:27;42.55;;;35.80;;
47337;SDS011;33069;51.970;5.892;2022-11-30T00:56:53;52.88;;;40.35;;
47337;SDS011;33069;51.970;5.892;2022-11-30T00:59:18;43.70;;;36.95;;
47337;SDS011;33069;51.970;5.892;2022-11-30T01:01:44;51.47;;;41.60;;
47337;SDS011;33069;51.970;5.892;2022-11-30T01:04:10;54.97;;;41.40;;
47337;SDS011;33069;51.970;5.892;2022-11-30T01:06:35;48.58;;;39.45;;
47337;SDS011;33069;51.970;5.892;2022-11-30T01:09:02;54.85;;;41.67;;
47337;SDS011;33069;51.970;5.892;2022-11-30T01:11:28;56.08;;;43.60;;
47337;SDS011;33069;51.970;5.892;2022-11-30T01:13:55;57.13;;;42.90;;
47337;SDS011;33069;51.970;5.892;2022-11-30T01:16:27;48.63;;;36.83;;
47337;SDS011;33069;51.970;5.892;2022-11-30T01:18:54;58.40;;;44.00;;
47337;SDS011;33069;51.970;5.892;2022-11-30T01:21:22;48.65;;;39.45;;
47337;SDS011;33069;51.970;5.892;2022-11-30T01:23:49;46.30;;;39.58;;
47337;SDS011;33069;51.970;5.892;2022-11-30T01:26:16;60.15;;;45.45;;
47337;SDS011;33069;51.970;5.892;2022-11-30T01:28:42;50.40;;;38.20;;
47337;SDS011;33069;51.970;5.892;2022-11-30T01:31:26;47.60;;;40.83;;
47337;SDS011;33069;51.970;5.892;2022-11-30T01:33:53;44.65;;;36.75;;
47337;SDS011;33069;51.970;5.892;2022-11-30T01:36:23;55.67;;;45.58;;
47337;SDS011;33069;51.970;5.892;2022-11-30T01:38:56;61.53;;;45.55;;
47337;SDS011;33069;51.970;5.892;2022-11-30T01:41:23;46.30;;;39.55;;
47337;SDS011;33069;51.970;5.892;2022-11-30T01:43:52;45.35;;;37.92;;
47337;SDS011;33069;51.970;5.892;2022-11-30T01:49:04;49.20;;;39.67;;
47337;SDS011;33069;51.970;5.892;2022-11-30T01:51:33;52.78;;;43.65;;
47337;SDS011;33069;51.970;5.892;2022-11-30T01:54:00;50.35;;;40.70;;
47337;SDS011;33069;51.970;5.892;2022-11-30T01:56:29;45.25;;;38.67;;
47337;SDS011;33069;51.970;5.892;2022-11-30T01:58:55;58.33;;;45.83;;
47337;SDS011;33069;51.970;5.892;2022-11-30T02:01:21;49.17;;;39.28;;
47337;SDS011;33069;51.970;5.892;2022-11-30T02:04:05;53.28;;;42.50;;
47337;SDS011;33069;51.970;5.892;2022-11-30T02:06:35;50.80;;;40.38;;
47337;SDS011;33069;51.970;5.892;2022-11-30T02:11:55;62.67;;;47.45;;
47337;SDS011;33069;51.970;5.892;2022-11-30T02:14:41;43.50;;;38.45;;
47337;SDS011;33069;51.970;5.892;2022-11-30T02:17:24;47.65;;;39.78;;
47337;SDS011;33069;51.970;5.892;2022-11-30T02:22:47;50.78;;;41.08;;
47337;SDS011;33069;51.970;5.892;2022-11-30T02:34:14;60.55;;;45.40;;
47337;SDS011;33069;51.970;5.892;2022-11-30T02:36:41;46.35;;;38.80;;
47337;SDS011;33069;51.970;5.892;2022-11-30T02:39:09;55.13;;;43.10;;
47337;SDS011;33069;51.970;5.892;2022-11-30T02:41:36;50.50;;;40.33;;
47337;SDS011;33069;51.970;5.892;2022-11-30T02:44:04;55.75;;;45.05;;
47337;SDS011;33069;51.970;5.892;2022-11-30T02:49:55;66.68;;;46.80;;
47337;SDS011;33069;51.970;5.892;2022-11-30T02:52:26;53.97;;;41.17;;
47337;SDS011;33069;51.970;5.892;2022-11-30T02:54:58;53.58;;;41.08;;
47337;SDS011;33069;51.970;5.892;2022-11-30T02:57:25;50.53;;;39.67;;
47337;SDS011;33069;51.970;5.892;2022-11-30T02:59:50;62.85;;;46.08;;
47337;SDS011;33069;51.970;5.892;2022-11-30T03:02:16;49.42;;;40.58;;
47337;SDS011;33069;51.970;5.892;2022-11-30T03:04:42;48.92;;;41.45;;
47337;SDS011;33069;51.970;5.892;2022-11-30T03:07:08;62.40;;;47.58;;
47337;SDS011;33069;51.970;5.892;2022-11-30T03:12:34;46.15;;;38.10;;
47337;SDS011;33069;51.970;5.892;2022-11-30T03:15:00;57.55;;;45.35;;
47337;SDS011;33069;51.970;5.892;2022-11-30T03:17:25;62.55;;;47.05;;
47337;SDS011;33069;51.970;5.892;2022-11-30T03:19:51;59.72;;;45.67;;
47337;SDS011;33069;51.970;5.892;2022-11-30T03:22:17;50.35;;;42.00;;
47337;SDS011;33069;51.970;5.892;2022-11-30T03:24:42;52.33;;;41.35;;
47337;SDS011;33069;51.970;5.892;2022-11-30T03:27:08;50.28;;;42.50;;
47337;SDS011;33069;51.970;5.892;2022-11-30T03:29:34;60.55;;;44.78;;
47337;SDS011;33069;51.970;5.892;2022-11-30T03:32:00;63.45;;;46.42;;
47337;SDS011;33069;51.970;5.892;2022-11-30T03:34:25;48.30;;;40.70;;
47337;SDS011;33069;51.970;5.892;2022-11-30T03:36:53;57.15;;;42.03;;
47337;SDS011;33069;51.970;5.892;2022-11-30T03:39:19;49.45;;;40.92;;
47337;SDS011;33069;51.970;5.892;2022-11-30T03:41:44;55.33;;;43.50;;
47337;SDS011;33069;51.970;5.892;2022-11-30T03:44:10;57.97;;;44.22;;
47337;SDS011;33069;51.970;5.892;2022-11-30T03:49:32;51.95;;;41.78;;
47337;SDS011;33069;51.970;5.892;2022-11-30T03:51:58;74.68;;;50.85;;
47337;SDS011;33069;51.970;5.892;2022-11-30T03:54:23;57.85;;;44.38;;
47337;SDS011;33069;51.970;5.892;2022-11-30T03:56:49;54.70;;;41.45;;
47337;SDS011;33069;51.970;5.892;2022-11-30T03:59:15;52.45;;;42.58;;
47337;SDS011;33069;51.970;5.892;2022-11-30T04:01:40;52.00;;;41.22;;
47337;SDS011;33069;51.970;5.892;2022-11-30T04:04:06;53.42;;;41.90;;
47337;SDS011;33069;51.970;5.892;2022-11-30T04:06:32;51.10;;;40.55;;
47337;SDS011;33069;51.970;5.892;2022-11-30T04:08:58;52.67;;;42.85;;
47337;SDS011;33069;51.970;5.892;2022-11-30T04:11:24;66.85;;;47.58;;
47337;SDS011;33069;51.970;5.892;2022-11-30T04:13:49;69.68;;;47.17;;
47337;SDS011;33069;51.970;5.892;2022-11-30T04:16:15;53.38;;;41.45;;
47337;SDS011;33069;51.970;5.892;2022-11-30T04:18:41;53.35;;;41.97;;
47337;SDS011;33069;51.970;5.892;2022-11-30T04:21:07;81.97;;;50.50;;
47337;SDS011;33069;51.970;5.892;2022-11-30T04:23:35;62.83;;;44.67;;
47337;SDS011;33069;51.970;5.892;2022-11-30T04:26:07;64.00;;;44.65;;
47337;SDS011;33069;51.970;5.892;2022-11-30T04:28:35;56.60;;;42.28;;
47337;SDS011;33069;51.970;5.892;2022-11-30T04:31:01;58.75;;;42.47;;
47337;SDS011;33069;51.970;5.892;2022-11-30T04:33:27;61.47;;;41.38;;
47337;SDS011;33069;51.970;5.892;2022-11-30T04:36:00;55.63;;;41.65;;
47337;SDS011;33069;51.970;5.892;2022-11-30T04:38:46;54.80;;;41.83;;
47337;SDS011;33069;51.970;5.892;2022-11-30T04:41:12;56.30;;;42.38;;
47337;SDS011;33069;51.970;5.892;2022-11-30T04:43:39;62.65;;;44.00;;
47337;SDS011;33069;51.970;5.892;2022-11-30T04:46:05;53.97;;;41.53;;
47337;SDS011;33069;51.970;5.892;2022-11-30T04:48:31;60.15;;;41.58;;
47337;SDS011;33069;51.970;5.892;2022-11-30T04:51:04;55.63;;;39.05;;
47337;SDS011;33069;51.970;5.892;2022-11-30T04:53:31;52.75;;;39.03;;
47337;SDS011;33069;51.970;5.892;2022-11-30T04:55:58;55.40;;;39.47;;
47337;SDS011;33069;51.970;5.892;2022-11-30T04:58:27;87.20;;;47.03;;
47337;SDS011;33069;51.970;5.892;2022-11-30T05:00:53;58.00;;;41.50;;
47337;SDS011;33069;51.970;5.892;2022-11-30T05:03:19;56.45;;;39.50;;
47337;SDS011;33069;51.970;5.892;2022-11-30T05:05:45;73.00;;;45.88;;
47337;SDS011;33069;51.970;5.892;2022-11-30T05:08:10;65.10;;;43.33;;
47337;SDS011;33069;51.970;5.892;2022-11-30T05:10:36;58.88;;;43.08;;
47337;SDS011;33069;51.970;5.892;2022-11-30T05:13:02;89.07;;;46.45;;
47337;SDS011;33069;51.970;5.892;2022-11-30T05:15:28;59.97;;;40.28;;
47337;SDS011;33069;51.970;5.892;2022-11-30T05:17:56;122.50;;;53.58;;
47337;SDS011;33069;51.970;5.892;2022-11-30T05:20:23;354.52;;;77.47;;
47337;SDS011;33069;51.970;5.892;2022-11-30T05:22:48;73.28;;;42.75;;
47337;SDS011;33069;51.970;5.892;2022-11-30T05:25:14;278.55;;;63.85;;
47337;SDS011;33069;51.970;5.892;2022-11-30T05:27:40;1298.38;;;117.10;;
47337;SDS011;33069;51.970;5.892;2022-11-30T05:30:06;167.30;;;44.30;;
47337;SDS011;33069;51.970;5.892;2022-11-30T05:32:32;61.20;;;38.05;;
47337;SDS011;33069;51.970;5.892;2022-11-30T05:34:57;67.85;;;39.90;;
47337;SDS011;33069;51.970;5.892;2022-11-30T05:37:23;48.75;;;34.65;;
47337;SDS011;33069;51.970;5.892;2022-11-30T05:39:49;52.85;;;36.20;;
47337;SDS011;33069;51.970;5.892;2022-11-30T05:42:15;61.38;;;38.33;;
47337;SDS011;33069;51.970;5.892;2022-11-30T05:44:40;49.40;;;36.45;;
47337;SDS011;33069;51.970;5.892;2022-11-30T05:47:07;52.72;;;37.67;;
47337;SDS011;33069;51.970;5.892;2022-11-30T05:49:32;49.10;;;35.42;;
47337;SDS011;33069;51.970;5.892;2022-11-30T05:51:58;51.10;;;35.28;;
47337;SDS011;33069;51.970;5.892;2022-11-30T05:54:24;60.90;;;40.28;;
47337;SDS011;33069;51.970;5.892;2022-11-30T05:56:50;56.75;;;36.33;;
47337;SDS011;33069;51.970;5.892;2022-11-30T05:59:15;47.05;;;35.10;;
47337;SDS011;33069;51.970;5.892;2022-11-30T06:01:41;45.38;;;35.50;;
47337;SDS011;33069;51.970;5.892;2022-11-30T06:04:07;51.92;;;37.35;;
47337;SDS011;33069;51.970;5.892;2022-11-30T06:06:32;50.28;;;37.55;;
47337;SDS011;33069;51.970;5.892;2022-11-30T06:08:58;41.47;;;32.70;;
47337;SDS011;33069;51.970;5.892;2022-11-30T06:11:24;50.60;;;35.70;;
47337;SDS011;33069;51.970;5.892;2022-11-30T06:13:49;44.65;;;34.92;;
47337;SDS011;33069;51.970;5.892;2022-11-30T06:16:24;48.97;;;34.83;;
47337;SDS011;33069;51.970;5.892;2022-11-30T06:18:50;59.25;;;40.42;;
47337;SDS011;33069;51.970;5.892;2022-11-30T06:21:16;41.58;;;32.90;;
47337;SDS011;33069;51.970;5.892;2022-11-30T06:23:42;49.17;;;37.60;;
47337;SDS011;33069;51.970;5.892;2022-11-30T06:26:11;56.50;;;40.05;;
47337;SDS011;33069;51.970;5.892;2022-11-30T06:28:37;60.28;;;40.40;;
47337;SDS011;33069;51.970;5.892;2022-11-30T06:31:05;75.88;;;44.05;;
47337;SDS011;33069;51.970;5.892;2022-11-30T06:33:31;60.63;;;40.85;;
47337;SDS011;33069;51.970;5.892;2022-11-30T06:35:57;54.63;;;38.40;;
47337;SDS011;33069;51.970;5.892;2022-11-30T06:38:23;127.28;;;52.95;;
47337;SDS011;33069;51.970;5.892;2022-11-30T06:40:50;58.88;;;39.17;;
47337;SDS011;33069;51.970;5.892;2022-11-30T06:43:16;65.95;;;42.35;;
47337;SDS011;33069;51.970;5.892;2022-11-30T06:45:43;57.80;;;38.20;;
47337;SDS011;33069;51.970;5.892;2022-11-30T06:48:10;80.25;;;44.03;;
47337;SDS011;33069;51.970;5.892;2022-11-30T06:50:36;93.90;;;47.15;;
47337;SDS011;33069;51.970;5.892;2022-11-30T06:53:02;130.70;;;48.95;;
47337;SDS011;33069;51.970;5.892;2022-11-30T06:55:28;263.58;;;54.13;;
47337;SDS011;33069;51.970;5.892;2022-11-30T06:58:09;192.40;;;45.85;;
47337;SDS011;33069;51.970;5.892;2022-11-30T07:00:35;75.28;;;41.70;;
47337;SDS011;33069;51.970;5.892;2022-11-30T07:03:02;307.30;;;58.03;;
47337;SDS011;33069;51.970;5.892;2022-11-30T07:05:29;580.90;;;73.63;;
47337;SDS011;33069;51.970;5.892;2022-11-30T07:07:58;894.05;;;91.70;;
47337;SDS011;33069;51.970;5.892;2022-11-30T07:10:23;1060.65;;;115.03;;
47337;SDS011;33069;51.970;5.892;2022-11-30T07:12:49;872.78;;;83.55;;
47337;SDS011;33069;51.970;5.892;2022-11-30T07:15:15;768.65;;;90.50;;
47337;SDS011;33069;51.970;5.892;2022-11-30T07:17:41;102.07;;;41.60;;
47337;SDS011;33069;51.970;5.892;2022-11-30T07:20:07;150.82;;;40.90;;
47337;SDS011;33069;51.970;5.892;2022-11-30T07:25:20;82.28;;;38.97;;
47337;SDS011;33069;51.970;5.892;2022-11-30T07:28:05;83.00;;;40.22;;
47337;SDS011;33069;51.970;5.892;2022-11-30T07:30:32;250.35;;;57.65;;
47337;SDS011;33069;51.970;5.892;2022-11-30T07:32:59;200.43;;;54.72;;
47337;SDS011;33069;51.970;5.892;2022-11-30T07:35:24;291.55;;;66.47;;
47337;SDS011;33069;51.970;5.892;2022-11-30T07:37:50;351.75;;;73.15;;
47337;SDS011;33069;51.970;5.892;2022-11-30T07:40:16;451.38;;;84.88;;
47337;SDS011;33069;51.970;5.892;2022-11-30T07:42:41;471.63;;;84.15;;
47337;SDS011;33069;51.970;5.892;2022-11-30T07:45:07;395.40;;;66.13;;
47337;SDS011;33069;51.970;5.892;2022-11-30T07:47:33;1088.70;;;128.55;;
47337;SDS011;33069;51.970;5.892;2022-11-30T07:50:00;285.83;;;55.53;;
47337;SDS011;33069;51.970;5.892;2022-11-30T07:52:25;691.13;;;91.63;;
47337;SDS011;33069;51.970;5.892;2022-11-30T07:54:51;547.05;;;79.22;;
47337;SDS011;33069;51.970;5.892;2022-11-30T07:57:17;953.88;;;121.28;;
47337;SDS011;33069;51.970;5.892;2022-11-30T07:59:43;1076.50;;;119.13;;
47337;SDS011;33069;51.970;5.892;2022-11-30T08:02:09;409.27;;;70.72;;
47337;SDS011;33069;51.970;5.892;2022-11-30T08:04:35;87.93;;;42.20;;
47337;SDS011;33069;51.970;5.892;2022-11-30T08:07:00;461.08;;;76.85;;
47337;SDS011;33069;51.970;5.892;2022-11-30T08:09:26;101.20;;;45.25;;
47337;SDS011;33069;51.970;5.892;2022-11-30T08:11:52;121.43;;;50.47;;
47337;SDS011;33069;51.970;5.892;2022-11-30T08:14:18;79.55;;;42.03;;
47337;SDS011;33069;51.970;5.892;2022-11-30T08:16:43;90.85;;;46.10;;
47337;SDS011;33069;51.970;5.892;2022-11-30T08:19:09;89.05;;;44.38;;
47337;SDS011;33069;51.970;5.892;2022-11-30T08:21:35;100.95;;;47.67;;
47337;SDS011;33069;51.970;5.892;2022-11-30T08:24:02;77.53;;;44.75;;
47337;SDS011;33069;51.970;5.892;2022-11-30T08:26:29;75.78;;;42.72;;
47337;SDS011;33069;51.970;5.892;2022-11-30T08:28:56;77.70;;;43.45;;
47337;SDS011;33069;51.970;5.892;2022-11-30T08:31:24;113.35;;;53.30;;
47337;SDS011;33069;51.970;5.892;2022-11-30T08:33:53;117.60;;;52.75;;
47337;SDS011;33069;51.970;5.892;2022-11-30T08:36:21;134.10;;;56.65;;
47337;SDS011;33069;51.970;5.892;2022-11-30T08:38:48;93.20;;;48.78;;
47337;SDS011;33069;51.970;5.892;2022-11-30T08:41:15;94.13;;;48.30;;
47337;SDS011;33069;51.970;5.892;2022-11-30T08:43:43;77.75;;;47.25;;
47337;SDS011;33069;51.970;5.892;2022-11-30T08:46:10;107.15;;;53.03;;
47337;SDS011;33069;51.970;5.892;2022-11-30T08:48:37;70.22;;;41.42;;
47337;SDS011;33069;51.970;5.892;2022-11-30T08:54:32;68.18;;;42.60;;
47337;SDS011;33069;51.970;5.892;2022-11-30T08:56:58;105.85;;;51.13;;
47337;SDS011;33069;51.970;5.892;2022-11-30T08:59:24;120.10;;;54.50;;
47337;SDS011;33069;51.970;5.892;2022-11-30T09:01:50;128.68;;;57.28;;
47337;SDS011;33069;51.970;5.892;2022-11-30T09:04:15;119.97;;;53.15;;
47337;SDS011;33069;51.970;5.892;2022-11-30T09:06:41;105.78;;;52.35;;
47337;SDS011;33069;51.970;5.892;2022-11-30T09:09:07;112.35;;;52.90;;
47337;SDS011;33069;51.970;5.892;2022-11-30T09:11:32;101.97;;;52.53;;
47337;SDS011;33069;51.970;5.892;2022-11-30T09:13:59;112.03;;;54.92;;
47337;SDS011;33069;51.970;5.892;2022-11-30T09:16:28;111.60;;;54.25;;
47337;SDS011;33069;51.970;5.892;2022-11-30T09:18:53;114.18;;;55.53;;
47337;SDS011;33069;51.970;5.892;2022-11-30T09:21:20;95.38;;;51.90;;
47337;SDS011;33069;51.970;5.892;2022-11-30T09:23:48;106.82;;;54.55;;
47337;SDS011;33069;51.970;5.892;2022-11-30T09:26:16;104.55;;;53.03;;
47337;SDS011;33069;51.970;5.892;2022-11-30T09:28:44;110.15;;;57.67;;
47337;SDS011;33069;51.970;5.892;2022-11-30T09:31:11;102.45;;;53.17;;
47337;SDS011;33069;51.970;5.892;2022-11-30T09:33:57;107.80;;;53.95;;
47337;SDS011;33069;51.970;5.892;2022-11-30T09:36:23;123.65;;;58.17;;
47337;SDS011;33069;51.970;5.892;2022-11-30T09:38:51;128.25;;;56.92;;
47337;SDS011;33069;51.970;5.892;2022-11-30T09:50:09;106.85;;;56.35;;
47337;SDS011;33069;51.970;5.892;2022-11-30T09:52:49;104.82;;;51.95;;
47337;SDS011;33069;51.970;5.892;2022-11-30T09:55:23;99.57;;;51.25;;
47337;SDS011;33069;51.970;5.892;2022-11-30T09:57:54;98.85;;;51.90;;
47337;SDS011;33069;51.970;5.892;2022-11-30T10:00:24;100.97;;;52.50;;
47337;SDS011;33069;51.970;5.892;2022-11-30T10:02:56;102.65;;;54.30;;
47337;SDS011;33069;51.970;5.892;2022-11-30T10:08:18;94.35;;;50.00;;
47337;SDS011;33069;51.970;5.892;2022-11-30T10:11:06;104.88;;;55.08;;
47337;SDS011;33069;51.970;5.892;2022-11-30T10:18:49;81.97;;;49.67;;
47337;SDS011;33069;51.970;5.892;2022-11-30T10:27:46;80.65;;;47.25;;
47337;SDS011;33069;51.970;5.892;2022-11-30T10:30:19;79.22;;;47.28;;
47337;SDS011;33069;51.970;5.892;2022-11-30T10:32:48;67.88;;;41.35;;
47337;SDS011;33069;51.970;5.892;2022-11-30T10:37:54;68.75;;;42.38;;
47337;SDS011;33069;51.970;5.892;2022-11-30T10:45:28;57.17;;;37.83;;
47337;SDS011;33069;51.970;5.892;2022-11-30T10:48:06;56.58;;;38.55;;
47337;SDS011;33069;51.970;5.892;2022-11-30T10:50:42;61.35;;;38.17;;
47337;SDS011;33069;51.970;5.892;2022-11-30T10:53:08;50.05;;;35.38;;
47337;SDS011;33069;51.970;5.892;2022-11-30T10:55:37;52.60;;;35.20;;
47337;SDS011;33069;51.970;5.892;2022-11-30T11:06:37;31.15;;;25.70;;
47337;SDS011;33069;51.970;5.892;2022-11-30T11:14:45;36.55;;;28.58;;
47337;SDS011;33069;51.970;5.892;2022-11-30T11:19:44;39.83;;;30.92;;
47337;SDS011;33069;51.970;5.892;2022-11-30T11:22:24;40.10;;;32.85;;
47337;SDS011;33069;51.970;5.892;2022-11-30T11:24:55;41.65;;;32.92;;
47337;SDS011;33069;51.970;5.892;2022-11-30T11:28:11;40.78;;;32.72;;
47337;SDS011;33069;51.970;5.892;2022-11-30T11:30:39;40.72;;;32.83;;
47337;SDS011;33069;51.970;5.892;2022-11-30T11:35:41;44.15;;;35.95;;
47337;SDS011;33069;51.970;5.892;2022-11-30T11:40:55;43.75;;;35.55;;
47337;SDS011;33069;51.970;5.892;2022-11-30T11:47:02;42.75;;;34.80;;
47337;SDS011;33069;51.970;5.892;2022-11-30T11:49:34;39.45;;;32.63;;
47337;SDS011;33069;51.970;5.892;2022-11-30T11:54:38;39.17;;;31.92;;
47337;SDS011;33069;51.970;5.892;2022-11-30T11:57:16;42.83;;;32.83;;
47337;SDS011;33069;51.970;5.892;2022-11-30T11:59:56;35.58;;;31.08;;
47337;SDS011;33069;51.970;5.892;2022-11-30T12:04:59;41.40;;;31.85;;
47337;SDS011;33069;51.970;5.892;2022-11-30T12:07:41;37.72;;;30.45;;
47337;SDS011;33069;51.970;5.892;2022-11-30T12:10:30;34.55;;;29.00;;
47337;SDS011;33069;51.970;5.892;2022-11-30T12:13:08;39.72;;;33.38;;
47337;SDS011;33069;51.970;5.892;2022-11-30T12:15:42;33.38;;;28.80;;
47337;SDS011;33069;51.970;5.892;2022-11-30T12:18:41;37.60;;;31.05;;
47337;SDS011;33069;51.970;5.892;2022-11-30T12:21:48;37.33;;;31.45;;
47337;SDS011;33069;51.970;5.892;2022-11-30T12:27:00;34.88;;;29.20;;
47337;SDS011;33069;51.970;5.892;2022-11-30T12:29:38;36.70;;;30.38;;
47337;SDS011;33069;51.970;5.892;2022-11-30T12:35:33;39.13;;;31.13;;
47337;SDS011;33069;51.970;5.892;2022-11-30T12:38:13;39.45;;;31.75;;
47337;SDS011;33069;51.970;5.892;2022-11-30T12:46:22;42.15;;;33.30;;
47337;SDS011;33069;51.970;5.892;2022-11-30T12:49:04;38.30;;;31.65;;
47337;SDS011;33069;51.970;5.892;2022-11-30T13:00:40;37.50;;;31.40;;
47337;SDS011;33069;51.970;5.892;2022-11-30T13:06:21;38.28;;;31.42;;
47337;SDS011;33069;51.970;5.892;2022-11-30T13:11:44;40.72;;;32.10;;
47337;SDS011;33069;51.970;5.892;2022-11-30T13:14:20;39.45;;;32.63;;
47337;SDS011;33069;51.970;5.892;2022-11-30T13:16:48;42.30;;;31.85;;
47337;SDS011;33069;51.970;5.892;2022-11-30T13:19:22;38.28;;;32.20;;
47337;SDS011;33069;51.970;5.892;2022-11-30T13:21:55;39.72;;;32.20;;
47337;SDS011;33069;51.970;5.892;2022-11-30T13:27:35;39.05;;;31.92;;
47337;SDS011;33069;51.970;5.892;2022-11-30T13:30:14;37.97;;;31.65;;
47337;SDS011;33069;51.970;5.892;2022-11-30T13:32:49;35.45;;;28.95;;
47337;SDS011;33069;51.970;5.892;2022-11-30T13:38:02;33.72;;;28.88;;
47337;SDS011;33069;51.970;5.892;2022-11-30T13:40:53;35.33;;;29.95;;
47337;SDS011;33069;51.970;5.892;2022-11-30T13:43:45;33.38;;;29.70;;
47337;SDS011;33069;51.970;5.892;2022-11-30T13:48:44;31.70;;;26.33;;
47337;SDS011;33069;51.970;5.892;2022-11-30T13:51:11;42.55;;;30.70;;
47337;SDS011;33069;51.970;5.892;2022-11-30T13:53:41;33.03;;;29.15;;
47337;SDS011;33069;51.970;5.892;2022-11-30T14:01:48;35.35;;;29.77;;
47337;SDS011;33069;51.970;5.892;2022-11-30T14:04:42;34.53;;;28.25;;
47337;SDS011;33069;51.970;5.892;2022-11-30T14:10:03;33.78;;;29.60;;
47337;SDS011;33069;51.970;5.892;2022-11-30T14:12:56;35.30;;;30.23;;
47337;SDS011;33069;51.970;5.892;2022-11-30T14:20:39;38.60;;;30.85;;
47337;SDS011;33069;51.970;5.892;2022-11-30T14:23:12;34.00;;;30.25;;
47337;SDS011;33069;51.970;5.892;2022-11-30T14:25:49;34.53;;;29.27;;
47337;SDS011;33069;51.970;5.892;2022-11-30T14:28:21;34.65;;;30.52;;
47337;SDS011;33069;51.970;5.892;2022-11-30T14:31:00;36.65;;;31.33;;
47337;SDS011;33069;51.970;5.892;2022-11-30T14:33:31;34.67;;;29.85;;
47337;SDS011;33069;51.970;5.892;2022-11-30T14:36:12;34.00;;;30.02;;
47337;SDS011;33069;51.970;5.892;2022-11-30T14:38:39;39.53;;;31.35;;
47337;SDS011;33069;51.970;5.892;2022-11-30T14:41:17;38.35;;;32.33;;
47337;SDS011;33069;51.970;5.892;2022-11-30T14:46:52;40.95;;;32.65;;
47337;SDS011;33069;51.970;5.892;2022-11-30T14:49:19;40.67;;;32.45;;
47337;SDS011;33069;51.970;5.892;2022-11-30T14:51:51;45.50;;;34.33;;
47337;SDS011;33069;51.970;5.892;2022-11-30T14:59:58;43.95;;;33.80;;
47337;SDS011;33069;51.970;5.892;2022-11-30T15:02:31;41.05;;;33.20;;
47337;SDS011;33069;51.970;5.892;2022-11-30T15:05:05;42.72;;;33.80;;
47337;SDS011;33069;51.970;5.892;2022-11-30T15:07:36;45.55;;;36.72;;
47337;SDS011;33069;51.970;5.892;2022-11-30T15:10:05;45.75;;;35.33;;
47337;SDS011;33069;51.970;5.892;2022-11-30T15:12:38;42.58;;;33.35;;
47337;SDS011;33069;51.970;5.892;2022-11-30T15:15:19;46.45;;;36.15;;
47337;SDS011;33069;51.970;5.892;2022-11-30T15:20:16;45.90;;;35.83;;
47337;SDS011;33069;51.970;5.892;2022-11-30T15:22:50;42.03;;;35.10;;
47337;SDS011;33069;51.970;5.892;2022-11-30T15:25:16;42.30;;;35.85;;
47337;SDS011;33069;51.970;5.892;2022-11-30T15:27:43;51.53;;;37.63;;
47337;SDS011;33069;51.970;5.892;2022-11-30T15:30:13;48.45;;;35.90;;
47337;SDS011;33069;51.970;5.892;2022-11-30T15:32:42;50.88;;;38.53;;
47337;SDS011;33069;51.970;5.892;2022-11-30T15:35:20;48.25;;;36.50;;
47337;SDS011;33069;51.970;5.892;2022-11-30T15:37:48;49.65;;;38.13;;
47337;SDS011;33069;51.970;5.892;2022-11-30T15:40:22;48.30;;;36.22;;
47337;SDS011;33069;51.970;5.892;2022-11-30T15:42:56;51.53;;;37.47;;
47337;SDS011;33069;51.970;5.892;2022-11-30T15:45:30;47.75;;;35.63;;
47337;SDS011;33069;51.970;5.892;2022-11-30T15:47:59;49.10;;;37.42;;
47337;SDS011;33069;51.970;5.892;2022-11-30T15:52:54;48.92;;;37.95;;
47337;SDS011;33069;51.970;5.892;2022-11-30T16:00:58;50.67;;;38.97;;
47337;SDS011;33069;51.970;5.892;2022-11-30T16:03:29;48.03;;;38.22;;
47337;SDS011;33069;51.970;5.892;2022-11-30T16:05:57;45.60;;;37.35;;
47337;SDS011;33069;51.970;5.892;2022-11-30T16:08:24;47.78;;;37.00;;
47337;SDS011;33069;51.970;5.892;2022-11-30T16:10:51;46.83;;;37.95;;
47337;SDS011;33069;51.970;5.892;2022-11-30T16:13:17;45.63;;;36.53;;
47337;SDS011;33069;51.970;5.892;2022-11-30T16:15:45;48.20;;;38.00;;
47337;SDS011;33069;51.970;5.892;2022-11-30T16:20:43;43.13;;;35.85;;
47337;SDS011;33069;51.970;5.892;2022-11-30T16:23:10;43.03;;;37.13;;
47337;SDS011;33069;51.970;5.892;2022-11-30T16:29:07;43.78;;;35.42;;
47337;SDS011;33069;51.970;5.892;2022-11-30T16:31:33;44.00;;;36.53;;
47337;SDS011;33069;51.970;5.892;2022-11-30T16:34:00;45.45;;;37.78;;
47337;SDS011;33069;51.970;5.892;2022-11-30T16:36:26;44.58;;;36.42;;
47337;SDS011;33069;51.970;5.892;2022-11-30T16:38:54;47.95;;;37.85;;
47337;SDS011;33069;51.970;5.892;2022-11-30T16:41:21;41.75;;;34.90;;
47337;SDS011;33069;51.970;5.892;2022-11-30T16:43:49;40.55;;;35.45;;
47337;SDS011;33069;51.970;5.892;2022-11-30T16:46:17;43.20;;;36.42;;
47337;SDS011;33069;51.970;5.892;2022-11-30T16:48:44;43.95;;;35.13;;
47337;SDS011;33069;51.970;5.892;2022-11-30T16:51:12;44.53;;;37.28;;
47337;SDS011;33069;51.970;5.892;2022-11-30T16:56:12;41.28;;;35.38;;
47337;SDS011;33069;51.970;5.892;2022-11-30T16:58:39;43.35;;;35.58;;
47337;SDS011;33069;51.970;5.892;2022-11-30T17:01:06;42.67;;;35.28;;
47337;SDS011;33069;51.970;5.892;2022-11-30T17:03:37;42.22;;;37.42;;
47337;SDS011;33069;51.970;5.892;2022-11-30T17:06:04;40.10;;;35.55;;
47337;SDS011;33069;51.970;5.892;2022-11-30T17:08:32;46.20;;;39.05;;
47337;SDS011;33069;51.970;5.892;2022-11-30T17:10:58;41.15;;;36.65;;
47337;SDS011;33069;51.970;5.892;2022-11-30T17:13:24;42.92;;;37.15;;
47337;SDS011;33069;51.970;5.892;2022-11-30T17:15:50;46.60;;;37.15;;
47337;SDS011;33069;51.970;5.892;2022-11-30T17:18:16;42.55;;;37.17;;
47337;SDS011;33069;51.970;5.892;2022-11-30T17:20:41;42.28;;;37.80;;
47337;SDS011;33069;51.970;5.892;2022-11-30T17:26:01;44.28;;;37.42;;
47337;SDS011;33069;51.970;5.892;2022-11-30T17:28:27;42.17;;;35.78;;